createdAt,value
2018-07-06T10:22:40.762Z,24.38
2018-07-06T10:25:09.093Z,22.63
2018-07-06T10:27:49.833Z,23.43
2018-07-06T10:30:34.769Z,22.58
2018-07-06T10:35:03.174Z,25.35
2018-07-06T10:37:31.745Z,22.35
2018-07-06T10:42:12.617Z,21.75
2018-07-06T10:44:42.033Z,23.76
2018-07-06T10:47:10.866Z,23.49
2018-07-06T10:49:39.322Z,24.24
2018-07-06T10:52:08.228Z,25.61
2018-07-06T10:54:37.377Z,24.88
2018-07-06T10:57:05.969Z,24.11
2018-07-06T10:59:35.434Z,23.31
2018-07-06T11:02:03.832Z,23.38
2018-07-06T11:04:32.316Z,22.91
2018-07-06T11:07:00.775Z,25.10
2018-07-06T11:09:29.066Z,25.84
2018-07-06T11:11:57.521Z,26.35
2018-07-06T11:14:26.095Z,26.02
2018-07-06T11:16:54.402Z,27.03
2018-07-06T11:19:22.791Z,24.75
2018-07-06T11:21:51.187Z,24.13
2018-07-06T11:24:19.534Z,24.50
2018-07-06T11:26:47.838Z,25.62
2018-07-06T11:29:16.201Z,25.65
2018-07-06T11:31:44.561Z,25.09
2018-07-06T11:34:12.912Z,23.70
2018-07-06T11:36:41.222Z,24.73
2018-07-06T11:39:09.566Z,25.26
2018-07-06T11:41:39.547Z,25.60
2018-07-06T11:44:08.039Z,25.09
2018-07-06T11:46:37.753Z,25.30
2018-07-06T11:50:36.989Z,26.72
2018-07-06T11:53:05.313Z,27.33
2018-07-06T11:55:33.715Z,27.57
2018-07-06T11:58:01.987Z,25.35
2018-07-06T12:00:30.221Z,25.97
2018-07-06T12:03:02.022Z,26.59
2018-07-06T12:05:29.645Z,28.17
2018-07-06T12:07:57.074Z,27.17
2018-07-06T12:10:24.704Z,26.06
2018-07-06T12:12:52.226Z,25.67
2018-07-06T12:15:19.673Z,27.47
2018-07-06T12:17:47.123Z,26.64
2018-07-06T12:20:54.613Z,24.88
2018-07-06T12:23:22.050Z,26.56
2018-07-06T12:25:49.474Z,27.81
2018-07-06T12:28:17.017Z,25.88
2018-07-06T12:30:44.486Z,27.03
2018-07-06T12:33:11.926Z,26.18
2018-07-06T12:35:39.422Z,25.16
2018-07-06T12:38:06.843Z,24.37
2018-07-06T12:40:34.346Z,24.56
2018-07-06T12:43:01.796Z,25.97
2018-07-06T12:45:29.209Z,25.04
2018-07-06T12:47:57.042Z,24.65
2018-07-06T12:50:24.529Z,23.79
2018-07-06T12:52:52.014Z,24.64
2018-07-06T12:55:19.450Z,26.47
2018-07-06T12:57:46.942Z,27.79
2018-07-06T13:00:14.403Z,28.42
2018-07-06T13:02:41.832Z,28.39
2018-07-06T13:05:09.310Z,28.20
2018-07-06T13:07:36.747Z,26.12
2018-07-06T13:10:04.170Z,25.53
2018-07-06T13:12:31.557Z,24.82
2018-07-06T13:14:58.994Z,24.90
2018-07-06T13:17:26.525Z,24.34
2018-07-06T13:19:53.992Z,24.00
2018-07-06T13:22:21.398Z,23.92
2018-07-06T13:24:48.832Z,26.04
2018-07-06T13:27:16.303Z,27.72
2018-07-06T13:29:43.759Z,27.03
2018-07-06T13:32:11.222Z,26.87
2018-07-06T13:34:38.645Z,26.00
2018-07-06T13:37:06.134Z,24.65
2018-07-06T13:39:33.598Z,24.22
2018-07-06T13:42:01.049Z,26.64
2018-07-06T13:44:28.495Z,27.99
2018-07-06T13:46:56.074Z,28.57
2018-07-06T13:49:23.422Z,26.34
2018-07-06T13:51:51.351Z,25.87
2018-07-06T13:54:18.841Z,25.95
2018-07-06T13:56:46.578Z,26.93
2018-07-06T13:59:14.129Z,27.01
2018-07-06T14:01:41.514Z,26.27
2018-07-06T14:04:09.729Z,26.00
2018-07-06T14:06:37.226Z,24.86
2018-07-06T14:09:05.179Z,24.48
2018-07-06T14:11:33.067Z,24.29
2018-07-06T14:14:01.060Z,24.58
2018-07-06T14:16:28.501Z,24.20
2018-07-06T14:18:55.861Z,24.22
2018-07-06T14:21:23.310Z,24.01
2018-07-06T14:23:50.791Z,24.41
2018-07-06T14:26:18.223Z,24.06
2018-07-06T14:28:45.720Z,24.24
